sensor_id;sensor_type;location;lat;lon;timestamp;P1;durP1;ratioP1;P2;durP2;ratioP2
4434;SDS011;46552;52.150;8.428;2022-12-16T00:01:04;57.57;;;29.40;;
4434;SDS011;46552;52.150;8.428;2022-12-16T00:03:33;58.33;;;31.40;;
4434;SDS011;46552;52.150;8.428;2022-12-16T00:06:00;65.37;;;31.40;;
4434;SDS011;46552;52.150;8.428;2022-12-16T00:08:31;55.93;;;29.20;;
4434;SDS011;46552;52.150;8.428;2022-12-16T00:10:59;64.50;;;30.57;;
4434;SDS011;46552;52.150;8.428;2022-12-16T00:13:27;59.53;;;31.40;;
4434;SDS011;46552;52.150;8.428;2022-12-16T00:15:56;59.77;;;30.93;;
4434;SDS011;46552;52.150;8.428;2022-12-16T00:18:25;50.40;;;28.70;;
4434;SDS011;46552;52.150;8.428;2022-12-16T00:20:52;57.53;;;30.27;;
4434;SDS011;46552;52.150;8.428;2022-12-16T00:23:20;52.30;;;26.23;;
4434;SDS011;46552;52.150;8.428;2022-12-16T00:25:50;57.97;;;28.93;;
4434;SDS011;46552;52.150;8.428;2022-12-16T00:28:17;49.23;;;26.57;;
4434;SDS011;46552;52.150;8.428;2022-12-16T00:30:47;52.43;;;28.47;;
4434;SDS011;46552;52.150;8.428;2022-12-16T00:33:16;55.00;;;29.73;;
4434;SDS011;46552;52.150;8.428;2022-12-16T00:35:47;52.93;;;27.77;;
4434;SDS011;46552;52.150;8.428;2022-12-16T00:38:14;48.03;;;28.63;;
4434;SDS011;46552;52.150;8.428;2022-12-16T00:40:42;59.57;;;29.37;;
4434;SDS011;46552;52.150;8.428;2022-12-16T00:43:09;54.03;;;28.47;;
4434;SDS011;46552;52.150;8.428;2022-12-16T00:45:37;57.10;;;29.03;;
4434;SDS011;46552;52.150;8.428;2022-12-16T00:48:05;61.80;;;29.47;;
4434;SDS011;46552;52.150;8.428;2022-12-16T00:50:34;60.77;;;30.17;;
4434;SDS011;46552;52.150;8.428;2022-12-16T00:53:03;67.53;;;33.03;;
4434;SDS011;46552;52.150;8.428;2022-12-16T00:55:31;56.87;;;30.40;;
4434;SDS011;46552;52.150;8.428;2022-12-16T00:57:58;59.43;;;30.00;;
4434;SDS011;46552;52.150;8.428;2022-12-16T01:00:26;46.37;;;28.10;;
4434;SDS011;46552;52.150;8.428;2022-12-16T01:02:54;66.10;;;30.33;;
4434;SDS011;46552;52.150;8.428;2022-12-16T01:05:21;53.43;;;28.43;;
4434;SDS011;46552;52.150;8.428;2022-12-16T01:07:50;49.30;;;26.87;;
4434;SDS011;46552;52.150;8.428;2022-12-16T01:10:19;60.40;;;28.47;;
4434;SDS011;46552;52.150;8.428;2022-12-16T01:12:47;51.80;;;29.20;;
4434;SDS011;46552;52.150;8.428;2022-12-16T01:15:14;54.13;;;30.03;;
4434;SDS011;46552;52.150;8.428;2022-12-16T01:17:41;51.73;;;28.60;;
4434;SDS011;46552;52.150;8.428;2022-12-16T01:20:09;56.33;;;28.73;;
4434;SDS011;46552;52.150;8.428;2022-12-16T01:22:37;57.03;;;31.00;;
4434;SDS011;46552;52.150;8.428;2022-12-16T01:25:06;61.57;;;29.93;;
4434;SDS011;46552;52.150;8.428;2022-12-16T01:27:37;61.23;;;30.73;;
4434;SDS011;46552;52.150;8.428;2022-12-16T01:30:05;55.60;;;29.20;;
4434;SDS011;46552;52.150;8.428;2022-12-16T01:32:33;51.57;;;27.17;;
4434;SDS011;46552;52.150;8.428;2022-12-16T01:35:02;59.90;;;30.00;;
4434;SDS011;46552;52.150;8.428;2022-12-16T01:37:29;54.43;;;27.53;;
4434;SDS011;46552;52.150;8.428;2022-12-16T01:39:56;52.90;;;27.93;;
4434;SDS011;46552;52.150;8.428;2022-12-16T01:42:24;54.77;;;29.37;;
4434;SDS011;46552;52.150;8.428;2022-12-16T01:44:54;58.87;;;28.47;;
4434;SDS011;46552;52.150;8.428;2022-12-16T01:47:21;54.70;;;29.60;;
4434;SDS011;46552;52.150;8.428;2022-12-16T01:49:53;54.43;;;30.10;;
4434;SDS011;46552;52.150;8.428;2022-12-16T01:52:25;55.20;;;27.97;;
4434;SDS011;46552;52.150;8.428;2022-12-16T01:54:57;58.73;;;29.63;;
4434;SDS011;46552;52.150;8.428;2022-12-16T01:57:29;55.27;;;27.60;;
4434;SDS011;46552;52.150;8.428;2022-12-16T02:00:04;56.67;;;29.50;;
4434;SDS011;46552;52.150;8.428;2022-12-16T02:02:32;52.77;;;28.53;;
4434;SDS011;46552;52.150;8.428;2022-12-16T02:05:00;52.73;;;28.40;;
4434;SDS011;46552;52.150;8.428;2022-12-16T02:07:47;58.60;;;29.57;;
4434;SDS011;46552;52.150;8.428;2022-12-16T02:10:23;52.30;;;29.60;;
4434;SDS011;46552;52.150;8.428;2022-12-16T02:12:59;55.97;;;30.20;;
4434;SDS011;46552;52.150;8.428;2022-12-16T02:15:38;55.17;;;26.93;;
4434;SDS011;46552;52.150;8.428;2022-12-16T02:18:11;58.27;;;30.00;;
4434;SDS011;46552;52.150;8.428;2022-12-16T02:20:50;50.60;;;26.97;;
4434;SDS011;46552;52.150;8.428;2022-12-16T02:23:50;67.50;;;30.80;;
4434;SDS011;46552;52.150;8.428;2022-12-16T02:33:01;64.53;;;29.97;;
4434;SDS011;46552;52.150;8.428;2022-12-16T02:35:40;52.50;;;28.20;;
4434;SDS011;46552;52.150;8.428;2022-12-16T02:38:14;54.40;;;29.60;;
4434;SDS011;46552;52.150;8.428;2022-12-16T02:40:50;57.70;;;30.20;;
4434;SDS011;46552;52.150;8.428;2022-12-16T02:43:24;58.30;;;26.40;;
4434;SDS011;46552;52.150;8.428;2022-12-16T02:46:03;59.67;;;28.83;;
4434;SDS011;46552;52.150;8.428;2022-12-16T02:48:33;50.30;;;27.27;;
4434;SDS011;46552;52.150;8.428;2022-12-16T02:51:01;51.93;;;26.50;;
4434;SDS011;46552;52.150;8.428;2022-12-16T02:53:28;52.60;;;27.03;;
4434;SDS011;46552;52.150;8.428;2022-12-16T02:56:02;50.30;;;26.77;;
4434;SDS011;46552;52.150;8.428;2022-12-16T02:58:36;68.20;;;29.33;;
4434;SDS011;46552;52.150;8.428;2022-12-16T03:01:14;49.10;;;26.60;;
4434;SDS011;46552;52.150;8.428;2022-12-16T03:03:52;51.23;;;25.97;;
4434;SDS011;46552;52.150;8.428;2022-12-16T03:06:26;52.00;;;27.67;;
4434;SDS011;46552;52.150;8.428;2022-12-16T03:08:57;59.00;;;27.20;;
4434;SDS011;46552;52.150;8.428;2022-12-16T03:11:26;47.33;;;26.23;;
4434;SDS011;46552;52.150;8.428;2022-12-16T03:13:55;56.53;;;28.60;;
4434;SDS011;46552;52.150;8.428;2022-12-16T03:16:26;58.17;;;27.77;;
4434;SDS011;46552;52.150;8.428;2022-12-16T03:18:57;51.73;;;29.03;;
4434;SDS011;46552;52.150;8.428;2022-12-16T03:21:29;63.47;;;31.70;;
4434;SDS011;46552;52.150;8.428;2022-12-16T03:24:00;60.83;;;30.00;;
4434;SDS011;46552;52.150;8.428;2022-12-16T03:26:32;70.50;;;32.20;;
4434;SDS011;46552;52.150;8.428;2022-12-16T03:29:02;59.43;;;31.40;;
4434;SDS011;46552;52.150;8.428;2022-12-16T03:31:36;63.33;;;33.00;;
4434;SDS011;46552;52.150;8.428;2022-12-16T03:34:08;70.23;;;33.17;;
4434;SDS011;46552;52.150;8.428;2022-12-16T03:36:40;81.10;;;36.37;;
4434;SDS011;46552;52.150;8.428;2022-12-16T03:39:10;74.00;;;34.33;;
4434;SDS011;46552;52.150;8.428;2022-12-16T03:41:38;70.63;;;34.07;;
4434;SDS011;46552;52.150;8.428;2022-12-16T03:44:09;76.63;;;32.07;;
4434;SDS011;46552;52.150;8.428;2022-12-16T03:46:39;73.17;;;32.30;;
4434;SDS011;46552;52.150;8.428;2022-12-16T03:49:06;70.03;;;32.07;;
4434;SDS011;46552;52.150;8.428;2022-12-16T03:51:33;70.23;;;32.07;;
4434;SDS011;46552;52.150;8.428;2022-12-16T03:54:00;56.53;;;30.03;;
4434;SDS011;46552;52.150;8.428;2022-12-16T03:56:27;53.73;;;28.50;;
4434;SDS011;46552;52.150;8.428;2022-12-16T03:58:54;50.77;;;28.20;;
4434;SDS011;46552;52.150;8.428;2022-12-16T04:01:22;52.07;;;29.50;;
4434;SDS011;46552;52.150;8.428;2022-12-16T04:03:50;54.30;;;27.27;;
4434;SDS011;46552;52.150;8.428;2022-12-16T04:06:18;62.10;;;25.53;;
4434;SDS011;46552;52.150;8.428;2022-12-16T04:08:45;48.67;;;26.00;;
4434;SDS011;46552;52.150;8.428;2022-12-16T04:11:13;53.40;;;25.67;;
4434;SDS011;46552;52.150;8.428;2022-12-16T04:13:58;54.37;;;28.13;;
4434;SDS011;46552;52.150;8.428;2022-12-16T04:16:42;60.47;;;27.07;;
4434;SDS011;46552;52.150;8.428;2022-12-16T04:19:29;48.50;;;25.87;;
4434;SDS011;46552;52.150;8.428;2022-12-16T04:22:17;55.63;;;28.87;;
4434;SDS011;46552;52.150;8.428;2022-12-16T04:25:11;53.83;;;27.90;;
4434;SDS011;46552;52.150;8.428;2022-12-16T04:27:41;56.07;;;28.37;;
4434;SDS011;46552;52.150;8.428;2022-12-16T04:30:12;52.10;;;27.60;;
4434;SDS011;46552;52.150;8.428;2022-12-16T04:32:46;46.27;;;27.90;;
4434;SDS011;46552;52.150;8.428;2022-12-16T04:35:36;55.67;;;27.17;;
4434;SDS011;46552;52.150;8.428;2022-12-16T04:38:20;51.83;;;26.23;;
4434;SDS011;46552;52.150;8.428;2022-12-16T04:41:05;48.03;;;27.60;;
4434;SDS011;46552;52.150;8.428;2022-12-16T04:43:50;51.00;;;28.03;;
4434;SDS011;46552;52.150;8.428;2022-12-16T04:46:34;44.70;;;26.80;;
4434;SDS011;46552;52.150;8.428;2022-12-16T04:49:19;51.50;;;26.03;;
4434;SDS011;46552;52.150;8.428;2022-12-16T04:52:05;57.93;;;27.53;;
4434;SDS011;46552;52.150;8.428;2022-12-16T04:54:58;57.40;;;27.17;;
4434;SDS011;46552;52.150;8.428;2022-12-16T04:57:43;60.10;;;28.40;;
4434;SDS011;46552;52.150;8.428;2022-12-16T05:00:27;56.33;;;26.80;;
4434;SDS011;46552;52.150;8.428;2022-12-16T05:03:11;52.60;;;26.30;;
4434;SDS011;46552;52.150;8.428;2022-12-16T05:05:55;53.30;;;28.20;;
4434;SDS011;46552;52.150;8.428;2022-12-16T05:08:42;48.23;;;27.37;;
4434;SDS011;46552;52.150;8.428;2022-12-16T05:11:26;53.47;;;26.83;;
4434;SDS011;46552;52.150;8.428;2022-12-16T05:14:11;49.40;;;27.60;;
4434;SDS011;46552;52.150;8.428;2022-12-16T05:16:58;47.43;;;25.00;;
4434;SDS011;46552;52.150;8.428;2022-12-16T05:19:42;50.47;;;27.20;;
4434;SDS011;46552;52.150;8.428;2022-12-16T05:22:26;49.53;;;27.27;;
4434;SDS011;46552;52.150;8.428;2022-12-16T05:25:24;49.17;;;25.23;;
4434;SDS011;46552;52.150;8.428;2022-12-16T05:28:08;47.30;;;25.37;;
4434;SDS011;46552;52.150;8.428;2022-12-16T05:30:53;53.73;;;27.93;;
4434;SDS011;46552;52.150;8.428;2022-12-16T05:33:37;90.33;;;42.50;;
4434;SDS011;46552;52.150;8.428;2022-12-16T05:36:22;91.70;;;48.90;;
4434;SDS011;46552;52.150;8.428;2022-12-16T05:39:06;58.33;;;31.37;;
4434;SDS011;46552;52.150;8.428;2022-12-16T05:41:53;55.90;;;29.97;;
4434;SDS011;46552;52.150;8.428;2022-12-16T05:44:37;56.60;;;30.20;;
4434;SDS011;46552;52.150;8.428;2022-12-16T05:47:21;60.30;;;33.23;;
4434;SDS011;46552;52.150;8.428;2022-12-16T05:50:06;63.50;;;33.47;;
4434;SDS011;46552;52.150;8.428;2022-12-16T05:52:59;56.10;;;29.67;;
4434;SDS011;46552;52.150;8.428;2022-12-16T05:55:44;53.10;;;27.53;;
4434;SDS011;46552;52.150;8.428;2022-12-16T05:58:30;49.63;;;27.10;;
4434;SDS011;46552;52.150;8.428;2022-12-16T06:01:16;53.20;;;25.83;;
4434;SDS011;46552;52.150;8.428;2022-12-16T06:04:09;61.80;;;29.23;;
4434;SDS011;46552;52.150;8.428;2022-12-16T06:06:54;57.80;;;27.73;;
4434;SDS011;46552;52.150;8.428;2022-12-16T06:09:38;51.73;;;28.50;;
4434;SDS011;46552;52.150;8.428;2022-12-16T06:12:23;56.27;;;26.27;;
4434;SDS011;46552;52.150;8.428;2022-12-16T06:15:09;50.73;;;24.90;;
4434;SDS011;46552;52.150;8.428;2022-12-16T06:17:54;46.60;;;27.03;;
4434;SDS011;46552;52.150;8.428;2022-12-16T06:20:38;54.17;;;29.27;;
4434;SDS011;46552;52.150;8.428;2022-12-16T06:23:23;60.43;;;31.20;;
4434;SDS011;46552;52.150;8.428;2022-12-16T06:26:07;54.80;;;29.07;;
4434;SDS011;46552;52.150;8.428;2022-12-16T06:28:51;54.57;;;29.37;;
4434;SDS011;46552;52.150;8.428;2022-12-16T06:31:38;47.13;;;25.70;;
4434;SDS011;46552;52.150;8.428;2022-12-16T06:34:22;55.93;;;28.97;;
4434;SDS011;46552;52.150;8.428;2022-12-16T06:37:06;53.90;;;30.87;;
4434;SDS011;46552;52.150;8.428;2022-12-16T06:39:50;53.17;;;26.83;;
4434;SDS011;46552;52.150;8.428;2022-12-16T06:42:37;48.57;;;28.67;;
4434;SDS011;46552;52.150;8.428;2022-12-16T06:45:24;55.23;;;28.03;;
4434;SDS011;46552;52.150;8.428;2022-12-16T06:48:10;65.30;;;30.70;;
4434;SDS011;46552;52.150;8.428;2022-12-16T06:50:56;59.27;;;29.10;;
4434;SDS011;46552;52.150;8.428;2022-12-16T06:53:40;49.80;;;27.33;;
4434;SDS011;46552;52.150;8.428;2022-12-16T06:56:25;50.63;;;27.00;;
4434;SDS011;46552;52.150;8.428;2022-12-16T06:59:09;52.47;;;26.47;;
4434;SDS011;46552;52.150;8.428;2022-12-16T07:01:54;59.70;;;27.63;;
4434;SDS011;46552;52.150;8.428;2022-12-16T07:04:39;59.87;;;29.00;;
4434;SDS011;46552;52.150;8.428;2022-12-16T07:07:24;60.53;;;28.50;;
4434;SDS011;46552;52.150;8.428;2022-12-16T07:10:09;67.57;;;30.03;;
4434;SDS011;46552;52.150;8.428;2022-12-16T07:12:55;70.00;;;29.50;;
4434;SDS011;46552;52.150;8.428;2022-12-16T07:15:48;55.13;;;27.20;;
4434;SDS011;46552;52.150;8.428;2022-12-16T07:18:33;54.33;;;27.83;;
4434;SDS011;46552;52.150;8.428;2022-12-16T07:21:18;54.83;;;29.43;;
4434;SDS011;46552;52.150;8.428;2022-12-16T07:24:03;55.07;;;29.33;;
4434;SDS011;46552;52.150;8.428;2022-12-16T07:27:03;75.40;;;30.03;;
4434;SDS011;46552;52.150;8.428;2022-12-16T07:29:47;58.83;;;30.63;;
4434;SDS011;46552;52.150;8.428;2022-12-16T07:32:32;63.97;;;32.00;;
4434;SDS011;46552;52.150;8.428;2022-12-16T07:35:16;64.83;;;30.70;;
4434;SDS011;46552;52.150;8.428;2022-12-16T07:38:02;57.63;;;29.33;;
4434;SDS011;46552;52.150;8.428;2022-12-16T07:40:46;55.47;;;27.47;;
4434;SDS011;46552;52.150;8.428;2022-12-16T07:43:30;59.87;;;27.50;;
4434;SDS011;46552;52.150;8.428;2022-12-16T07:46:15;58.83;;;28.80;;
4434;SDS011;46552;52.150;8.428;2022-12-16T07:49:00;58.67;;;29.97;;
4434;SDS011;46552;52.150;8.428;2022-12-16T07:51:44;56.13;;;29.30;;
4434;SDS011;46552;52.150;8.428;2022-12-16T07:54:30;55.00;;;28.63;;
4434;SDS011;46552;52.150;8.428;2022-12-16T07:57:14;55.63;;;29.93;;
4434;SDS011;46552;52.150;8.428;2022-12-16T07:59:59;57.87;;;28.27;;
4434;SDS011;46552;52.150;8.428;2022-12-16T08:02:43;57.67;;;30.40;;
4434;SDS011;46552;52.150;8.428;2022-12-16T08:05:39;65.33;;;34.00;;
4434;SDS011;46552;52.150;8.428;2022-12-16T08:08:23;63.83;;;33.83;;
4434;SDS011;46552;52.150;8.428;2022-12-16T08:11:10;90.07;;;42.97;;
4434;SDS011;46552;52.150;8.428;2022-12-16T08:13:54;65.73;;;34.33;;
4434;SDS011;46552;52.150;8.428;2022-12-16T08:16:39;65.23;;;30.10;;
4434;SDS011;46552;52.150;8.428;2022-12-16T08:19:23;62.70;;;29.00;;
4434;SDS011;46552;52.150;8.428;2022-12-16T08:22:08;51.03;;;28.00;;
4434;SDS011;46552;52.150;8.428;2022-12-16T08:24:53;56.17;;;26.90;;
4434;SDS011;46552;52.150;8.428;2022-12-16T08:27:39;67.30;;;27.93;;
4434;SDS011;46552;52.150;8.428;2022-12-16T08:30:23;45.50;;;26.50;;
4434;SDS011;46552;52.150;8.428;2022-12-16T08:33:08;50.23;;;24.43;;
4434;SDS011;46552;52.150;8.428;2022-12-16T08:35:52;52.70;;;22.47;;
4434;SDS011;46552;52.150;8.428;2022-12-16T08:38:40;48.73;;;24.60;;
4434;SDS011;46552;52.150;8.428;2022-12-16T08:41:25;51.70;;;25.73;;
4434;SDS011;46552;52.150;8.428;2022-12-16T08:44:23;45.80;;;24.47;;
4434;SDS011;46552;52.150;8.428;2022-12-16T08:47:08;44.80;;;23.60;;
4434;SDS011;46552;52.150;8.428;2022-12-16T08:49:52;45.93;;;25.60;;
4434;SDS011;46552;52.150;8.428;2022-12-16T08:52:37;43.10;;;25.00;;
4434;SDS011;46552;52.150;8.428;2022-12-16T08:55:21;41.83;;;25.67;;
4434;SDS011;46552;52.150;8.428;2022-12-16T08:58:06;46.97;;;25.70;;
4434;SDS011;46552;52.150;8.428;2022-12-16T09:00:51;40.70;;;25.90;;
4434;SDS011;46552;52.150;8.428;2022-12-16T09:03:36;46.30;;;26.60;;
4434;SDS011;46552;52.150;8.428;2022-12-16T09:06:20;51.73;;;29.23;;
4434;SDS011;46552;52.150;8.428;2022-12-16T09:09:05;50.27;;;29.50;;
4434;SDS011;46552;52.150;8.428;2022-12-16T09:11:50;46.00;;;30.47;;
4434;SDS011;46552;52.150;8.428;2022-12-16T09:14:34;48.53;;;28.63;;
4434;SDS011;46552;52.150;8.428;2022-12-16T09:17:20;44.60;;;29.13;;
4434;SDS011;46552;52.150;8.428;2022-12-16T09:20:05;44.90;;;27.27;;
4434;SDS011;46552;52.150;8.428;2022-12-16T09:22:50;47.33;;;28.50;;
4434;SDS011;46552;52.150;8.428;2022-12-16T09:25:35;44.07;;;28.70;;
4434;SDS011;46552;52.150;8.428;2022-12-16T09:28:25;42.07;;;29.37;;
4434;SDS011;46552;52.150;8.428;2022-12-16T09:31:10;46.63;;;29.77;;
4434;SDS011;46552;52.150;8.428;2022-12-16T09:33:56;47.20;;;28.83;;
4434;SDS011;46552;52.150;8.428;2022-12-16T09:36:40;48.23;;;30.33;;
4434;SDS011;46552;52.150;8.428;2022-12-16T09:39:24;61.23;;;38.10;;
4434;SDS011;46552;52.150;8.428;2022-12-16T09:42:07;65.03;;;38.70;;
4434;SDS011;46552;52.150;8.428;2022-12-16T09:45:02;45.27;;;31.07;;
4434;SDS011;46552;52.150;8.428;2022-12-16T09:48:01;53.90;;;34.87;;
4434;SDS011;46552;52.150;8.428;2022-12-16T09:50:53;45.03;;;31.90;;
4434;SDS011;46552;52.150;8.428;2022-12-16T09:53:41;47.40;;;31.30;;
4434;SDS011;46552;52.150;8.428;2022-12-16T09:56:29;53.57;;;31.37;;
4434;SDS011;46552;52.150;8.428;2022-12-16T09:59:16;50.87;;;31.10;;
4434;SDS011;46552;52.150;8.428;2022-12-16T10:02:08;57.53;;;33.20;;
4434;SDS011;46552;52.150;8.428;2022-12-16T10:04:56;51.47;;;34.20;;
4434;SDS011;46552;52.150;8.428;2022-12-16T10:07:44;48.97;;;30.20;;
4434;SDS011;46552;52.150;8.428;2022-12-16T10:10:36;44.83;;;29.60;;
4434;SDS011;46552;52.150;8.428;2022-12-16T10:13:28;59.30;;;35.83;;
4434;SDS011;46552;52.150;8.428;2022-12-16T10:16:20;58.10;;;34.13;;
4434;SDS011;46552;52.150;8.428;2022-12-16T10:19:12;51.27;;;34.50;;
4434;SDS011;46552;52.150;8.428;2022-12-16T10:22:15;48.10;;;30.93;;
4434;SDS011;46552;52.150;8.428;2022-12-16T10:25:05;46.77;;;29.00;;
4434;SDS011;46552;52.150;8.428;2022-12-16T10:27:57;40.47;;;29.47;;
4434;SDS011;46552;52.150;8.428;2022-12-16T10:30:48;56.20;;;33.47;;
4434;SDS011;46552;52.150;8.428;2022-12-16T10:33:33;48.70;;;30.70;;
4434;SDS011;46552;52.150;8.428;2022-12-16T10:36:19;47.93;;;28.53;;
4434;SDS011;46552;52.150;8.428;2022-12-16T10:39:08;46.10;;;29.10;;
4434;SDS011;46552;52.150;8.428;2022-12-16T10:45:02;38.33;;;27.93;;
4434;SDS011;46552;52.150;8.428;2022-12-16T10:47:50;36.47;;;28.03;;
4434;SDS011;46552;52.150;8.428;2022-12-16T10:50:35;43.37;;;29.50;;
4434;SDS011;46552;52.150;8.428;2022-12-16T10:53:21;39.30;;;28.80;;
4434;SDS011;46552;52.150;8.428;2022-12-16T10:56:12;37.57;;;27.07;;
4434;SDS011;46552;52.150;8.428;2022-12-16T10:59:06;34.93;;;24.50;;
4434;SDS011;46552;52.150;8.428;2022-12-16T11:01:55;39.33;;;26.80;;
4434;SDS011;46552;52.150;8.428;2022-12-16T11:04:40;40.43;;;25.83;;
4434;SDS011;46552;52.150;8.428;2022-12-16T11:07:30;40.90;;;26.97;;
4434;SDS011;46552;52.150;8.428;2022-12-16T11:13:23;44.33;;;26.93;;
4434;SDS011;46552;52.150;8.428;2022-12-16T11:16:15;37.17;;;25.53;;
4434;SDS011;46552;52.150;8.428;2022-12-16T11:19:02;38.53;;;26.40;;
4434;SDS011;46552;52.150;8.428;2022-12-16T11:21:47;40.30;;;27.07;;
4434;SDS011;46552;52.150;8.428;2022-12-16T11:24:32;38.97;;;25.90;;
4434;SDS011;46552;52.150;8.428;2022-12-16T11:27:20;36.50;;;26.93;;
4434;SDS011;46552;52.150;8.428;2022-12-16T11:30:17;42.33;;;28.27;;
4434;SDS011;46552;52.150;8.428;2022-12-16T11:33:15;48.13;;;32.27;;
4434;SDS011;46552;52.150;8.428;2022-12-16T11:36:08;42.87;;;31.83;;
4434;SDS011;46552;52.150;8.428;2022-12-16T11:38:56;47.63;;;32.90;;
4434;SDS011;46552;52.150;8.428;2022-12-16T11:41:41;45.23;;;28.80;;
4434;SDS011;46552;52.150;8.428;2022-12-16T11:44:30;44.90;;;30.07;;
4434;SDS011;46552;52.150;8.428;2022-12-16T11:47:21;44.87;;;28.80;;
4434;SDS011;46552;52.150;8.428;2022-12-16T11:50:23;40.83;;;26.93;;
4434;SDS011;46552;52.150;8.428;2022-12-16T11:53:14;38.43;;;28.00;;
4434;SDS011;46552;52.150;8.428;2022-12-16T11:56:09;40.97;;;28.40;;
4434;SDS011;46552;52.150;8.428;2022-12-16T11:59:02;41.00;;;29.03;;
4434;SDS011;46552;52.150;8.428;2022-12-16T12:01:52;40.10;;;27.03;;
4434;SDS011;46552;52.150;8.428;2022-12-16T12:04:41;43.33;;;28.97;;
4434;SDS011;46552;52.150;8.428;2022-12-16T12:07:31;39.73;;;30.33;;
4434;SDS011;46552;52.150;8.428;2022-12-16T12:10:27;41.53;;;27.63;;
4434;SDS011;46552;52.150;8.428;2022-12-16T12:13:33;35.90;;;25.10;;
4434;SDS011;46552;52.150;8.428;2022-12-16T12:16:26;33.93;;;23.93;;
4434;SDS011;46552;52.150;8.428;2022-12-16T12:19:16;34.17;;;23.00;;
4434;SDS011;46552;52.150;8.428;2022-12-16T12:22:06;33.97;;;22.20;;
4434;SDS011;46552;52.150;8.428;2022-12-16T12:24:58;38.03;;;24.73;;
4434;SDS011;46552;52.150;8.428;2022-12-16T12:27:52;50.53;;;24.70;;
4434;SDS011;46552;52.150;8.428;2022-12-16T12:30:41;40.80;;;24.80;;
4434;SDS011;46552;52.150;8.428;2022-12-16T12:33:36;38.60;;;24.57;;
4434;SDS011;46552;52.150;8.428;2022-12-16T12:36:33;46.63;;;24.93;;
4434;SDS011;46552;52.150;8.428;2022-12-16T12:39:27;38.83;;;24.53;;
4434;SDS011;46552;52.150;8.428;2022-12-16T12:42:20;41.50;;;25.90;;
4434;SDS011;46552;52.150;8.428;2022-12-16T12:45:23;38.57;;;23.43;;
4434;SDS011;46552;52.150;8.428;2022-12-16T12:48:32;39.97;;;24.53;;
4434;SDS011;46552;52.150;8.428;2022-12-16T12:51:24;32.53;;;21.33;;
4434;SDS011;46552;52.150;8.428;2022-12-16T12:54:14;43.07;;;25.90;;
4434;SDS011;46552;52.150;8.428;2022-12-16T12:57:07;40.33;;;25.50;;
4434;SDS011;46552;52.150;8.428;2022-12-16T12:59:56;43.10;;;23.47;;
4434;SDS011;46552;52.150;8.428;2022-12-16T13:02:44;35.40;;;21.33;;
4434;SDS011;46552;52.150;8.428;2022-12-16T13:05:33;44.20;;;23.93;;
4434;SDS011;46552;52.150;8.428;2022-12-16T13:08:31;45.37;;;26.13;;
4434;SDS011;46552;52.150;8.428;2022-12-16T13:11:16;39.03;;;22.17;;
4434;SDS011;46552;52.150;8.428;2022-12-16T13:14:01;38.20;;;21.50;;
4434;SDS011;46552;52.150;8.428;2022-12-16T13:17:08;35.77;;;23.00;;
4434;SDS011;46552;52.150;8.428;2022-12-16T13:19:53;43.93;;;23.30;;
4434;SDS011;46552;52.150;8.428;2022-12-16T13:22:39;40.20;;;22.50;;
4434;SDS011;46552;52.150;8.428;2022-12-16T13:25:35;40.80;;;22.63;;
4434;SDS011;46552;52.150;8.428;2022-12-16T13:28:25;39.10;;;22.60;;
4434;SDS011;46552;52.150;8.428;2022-12-16T13:31:14;40.60;;;22.30;;
4434;SDS011;46552;52.150;8.428;2022-12-16T13:34:04;43.17;;;23.97;;
4434;SDS011;46552;52.150;8.428;2022-12-16T13:36:54;48.30;;;25.50;;
4434;SDS011;46552;52.150;8.428;2022-12-16T13:39:40;47.03;;;24.60;;
4434;SDS011;46552;52.150;8.428;2022-12-16T13:42:30;43.63;;;24.57;;
4434;SDS011;46552;52.150;8.428;2022-12-16T13:45:27;43.37;;;25.50;;
4434;SDS011;46552;52.150;8.428;2022-12-16T13:54:43;35.43;;;21.40;;
4434;SDS011;46552;52.150;8.428;2022-12-16T13:57:34;39.87;;;22.90;;
4434;SDS011;46552;52.150;8.428;2022-12-16T14:00:22;39.17;;;22.13;;
4434;SDS011;46552;52.150;8.428;2022-12-16T14:03:10;33.73;;;20.23;;
4434;SDS011;46552;52.150;8.428;2022-12-16T14:05:57;34.33;;;19.27;;
4434;SDS011;46552;52.150;8.428;2022-12-16T14:08:45;38.30;;;21.30;;
4434;SDS011;46552;52.150;8.428;2022-12-16T14:11:33;34.53;;;20.73;;
4434;SDS011;46552;52.150;8.428;2022-12-16T14:14:26;37.83;;;20.43;;
4434;SDS011;46552;52.150;8.428;2022-12-16T14:17:17;33.47;;;18.63;;
4434;SDS011;46552;52.150;8.428;2022-12-16T14:20:08;39.90;;;21.93;;
4434;SDS011;46552;52.150;8.428;2022-12-16T14:23:00;41.63;;;20.43;;
4434;SDS011;46552;52.150;8.428;2022-12-16T14:25:54;38.60;;;23.40;;
4434;SDS011;46552;52.150;8.428;2022-12-16T14:28:40;45.80;;;20.53;;
4434;SDS011;46552;52.150;8.428;2022-12-16T14:31:25;38.70;;;21.57;;
4434;SDS011;46552;52.150;8.428;2022-12-16T14:34:11;38.93;;;22.83;;
4434;SDS011;46552;52.150;8.428;2022-12-16T14:36:56;41.50;;;23.23;;
4434;SDS011;46552;52.150;8.428;2022-12-16T14:39:41;43.63;;;23.40;;
4434;SDS011;46552;52.150;8.428;2022-12-16T14:42:27;43.13;;;24.80;;
4434;SDS011;46552;52.150;8.428;2022-12-16T14:45:20;39.57;;;24.37;;
4434;SDS011;46552;52.150;8.428;2022-12-16T14:48:24;35.77;;;22.97;;
4434;SDS011;46552;52.150;8.428;2022-12-16T14:51:15;45.57;;;25.07;;
4434;SDS011;46552;52.150;8.428;2022-12-16T14:54:16;45.67;;;24.13;;
4434;SDS011;46552;52.150;8.428;2022-12-16T14:57:02;40.13;;;22.37;;
4434;SDS011;46552;52.150;8.428;2022-12-16T14:59:57;46.13;;;23.90;;
4434;SDS011;46552;52.150;8.428;2022-12-16T15:02:43;45.07;;;25.30;;
4434;SDS011;46552;52.150;8.428;2022-12-16T15:05:32;41.90;;;23.40;;
4434;SDS011;46552;52.150;8.428;2022-12-16T15:08:17;48.90;;;27.53;;
4434;SDS011;46552;52.150;8.428;2022-12-16T15:11:03;46.57;;;27.43;;
4434;SDS011;46552;52.150;8.428;2022-12-16T15:13:52;54.07;;;30.97;;
4434;SDS011;46552;52.150;8.428;2022-12-16T15:16:42;60.23;;;30.50;;
4434;SDS011;46552;52.150;8.428;2022-12-16T15:19:27;57.27;;;29.47;;
4434;SDS011;46552;52.150;8.428;2022-12-16T15:22:16;48.77;;;28.17;;
4434;SDS011;46552;52.150;8.428;2022-12-16T15:25:01;57.17;;;29.77;;
4434;SDS011;46552;52.150;8.428;2022-12-16T15:27:51;61.30;;;30.57;;
4434;SDS011;46552;52.150;8.428;2022-12-16T15:30:37;59.33;;;27.60;;
4434;SDS011;46552;52.150;8.428;2022-12-16T15:33:24;49.87;;;28.03;;
4434;SDS011;46552;52.150;8.428;2022-12-16T15:36:24;49.97;;;27.00;;
4434;SDS011;46552;52.150;8.428;2022-12-16T15:39:16;53.30;;;29.57;;
4434;SDS011;46552;52.150;8.428;2022-12-16T15:42:03;53.30;;;26.70;;
4434;SDS011;46552;52.150;8.428;2022-12-16T15:44:48;49.53;;;28.20;;
4434;SDS011;46552;52.150;8.428;2022-12-16T15:47:35;48.93;;;25.80;;
4434;SDS011;46552;52.150;8.428;2022-12-16T15:50:23;61.17;;;29.13;;
4434;SDS011;46552;52.150;8.428;2022-12-16T15:53:14;55.70;;;28.97;;
4434;SDS011;46552;52.150;8.428;2022-12-16T15:55:59;55.50;;;27.63;;
4434;SDS011;46552;52.150;8.428;2022-12-16T15:58:43;49.83;;;27.70;;
4434;SDS011;46552;52.150;8.428;2022-12-16T16:01:24;43.80;;;27.27;;
4434;SDS011;46552;52.150;8.428;2022-12-16T16:04:14;61.50;;;29.07;;
4434;SDS011;46552;52.150;8.428;2022-12-16T16:07:07;50.73;;;27.70;;
4434;SDS011;46552;52.150;8.428;2022-12-16T16:10:03;58.73;;;29.37;;
4434;SDS011;46552;52.150;8.428;2022-12-16T16:12:56;49.83;;;29.73;;
4434;SDS011;46552;52.150;8.428;2022-12-16T16:15:41;55.53;;;27.70;;
4434;SDS011;46552;52.150;8.428;2022-12-16T16:18:25;60.37;;;31.40;;
4434;SDS011;46552;52.150;8.428;2022-12-16T16:21:09;63.33;;;30.10;;
4434;SDS011;46552;52.150;8.428;2022-12-16T16:23:55;47.63;;;27.00;;
4434;SDS011;46552;52.150;8.428;2022-12-16T16:26:45;49.83;;;29.70;;